Time;durP1;ratioP1;P1;durP2;ratioP2;P2;SDS_P1;SDS_P2;PMS_P1;PMS_P2;Temp;Humidity;BMP_temperature;BMP_pressure;BME280_temperature;BME280_humidity;BME280_pressure;Samples;Min_cycle;Max_cycle;Signal;HPM_P1;HPM_P2
2021/06/21 00:00:15;;;;;;;16.38;14.75;;;;;;;17.42;80.20;95729.34;3578193;40;20066;-56
2021/06/21 00:02:43;;;;;;;14.45;12.93;;;;;;;17.38;81.58;95731.84;3583855;39;20075;-56
2021/06/21 00:05:13;;;;;;;16.02;14.35;;;;;;;17.35;81.06;95732.44;3581701;40;20052;-56
2021/06/21 00:07:42;;;;;;;17.63;15.52;;;;;;;17.35;81.33;95729.78;3592320;40;20048;-55
2021/06/21 00:10:12;;;;;;;18.00;15.57;;;;;;;17.34;80.99;95726.34;3593487;39;20107;-56
2021/06/21 00:12:47;;;;;;;15.70;14.30;;;;;;;17.33;80.62;95730.09;3562497;40;20052;-56
2021/06/21 00:15:21;;;;;;;14.13;12.93;;;;;;;17.34;81.39;95721.00;3568607;40;20086;-56
2021/06/21 00:17:49;;;;;;;15.18;13.68;;;;;;;17.34;80.76;95730.84;3569080;40;20057;-56
2021/06/21 00:20:18;;;;;;;20.05;13.55;;;;;;;17.33;80.49;95721.28;3560131;40;20732;-56
2021/06/21 00:22:47;;;;;;;16.63;15.13;;;;;;;17.30;80.68;95717.34;3560658;40;20057;-56
2021/06/21 00:25:15;;;;;;;16.40;14.63;;;;;;;17.30;80.69;95719.22;3543044;40;20048;-56
2021/06/21 00:27:45;;;;;;;18.00;15.70;;;;;;;17.29;80.67;95723.00;3559800;40;20049;-56
2021/06/21 00:30:15;;;;;;;15.68;14.27;;;;;;;17.23;80.82;95710.88;3545301;40;20067;-56
2021/06/21 00:32:45;;;;;;;16.08;14.60;;;;;;;17.17;81.09;95716.31;3563147;40;20061;-56
2021/06/21 00:35:15;;;;;;;16.98;14.32;;;;;;;17.13;80.89;95712.69;3560978;40;20053;-56
2021/06/21 00:37:45;;;;;;;14.45;13.15;;;;;;;17.12;81.50;95713.78;3553750;40;20053;-56
2021/06/21 00:40:14;;;;;;;15.32;14.00;;;;;;;17.15;81.44;95715.84;3551746;40;20057;-56
2021/06/21 00:42:44;;;;;;;15.65;14.05;;;;;;;17.14;81.30;95724.13;3569617;40;20052;-56
2021/06/21 00:45:16;;;;;;;18.65;15.00;;;;;;;17.14;81.48;95724.94;3566534;40;20059;-56
2021/06/21 00:47:44;;;;;;;16.25;14.75;;;;;;;17.13;81.52;95731.34;3591123;40;20052;-56
2021/06/21 00:50:13;;;;;;;15.27;13.98;;;;;;;17.10;81.07;95715.97;3584093;39;20301;-56
2021/06/21 00:52:41;;;;;;;17.52;15.75;;;;;;;17.08;81.14;95720.78;3590764;39;20067;-56
2021/06/21 00:55:10;;;;;;;17.27;15.52;;;;;;;17.04;81.50;95711.84;3587510;39;20759;-57
2021/06/21 00:57:38;;;;;;;16.85;13.43;;;;;;;17.06;81.43;95715.78;3589360;39;20044;-56
2021/06/21 01:00:19;;;;;;;15.88;14.30;;;;;;;17.04;81.20;95707.28;3581500;40;20406;-56
2021/06/21 01:02:48;;;;;;;15.50;13.90;;;;;;;17.01;81.21;95701.78;3590438;39;20547;-56
2021/06/21 01:05:19;;;;;;;17.38;14.65;;;;;;;16.92;81.29;95688.38;3590116;39;20032;-55
2021/06/21 01:07:48;;;;;;;15.98;14.35;;;;;;;16.81;81.63;95681.69;3591839;40;20062;-56
2021/06/21 01:10:22;;;;;;;16.42;14.68;;;;;;;16.79;81.93;95682.00;3589845;39;20044;-56
2021/06/21 01:12:52;;;;;;;15.75;14.15;;;;;;;16.71;81.93;95672.06;3578957;39;20066;-56
2021/06/21 01:15:25;;;;;;;15.90;14.55;;;;;;;16.68;81.82;95673.44;3590355;39;22252;-56
2021/06/21 01:18:06;;;;;;;14.00;12.75;;;;;;;16.64;81.68;95666.38;3583457;39;20124;-56
2021/06/21 01:21:02;;;;;;;15.80;14.18;;;;;;;16.67;82.62;95671.88;3582423;40;20046;-56
2021/06/21 01:23:33;;;;;;;24.38;15.25;;;;;;;16.63;82.18;95662.13;3584185;39;20324;-56
2021/06/21 01:26:20;;;;;;;17.27;15.60;;;;;;;16.59;82.20;95659.28;3581168;39;20052;-56
2021/06/21 01:29:27;;;;;;;18.92;14.55;;;;;;;16.56;81.75;95657.97;3576012;40;21242;-56
2021/06/21 01:32:09;;;;;;;16.30;14.23;;;;;;;16.55;81.86;95658.28;3588320;39;20052;-56
2021/06/21 01:34:43;;;;;;;16.60;14.00;;;;;;;16.52;81.55;95649.03;3577255;39;20036;-56
2021/06/21 01:37:13;;;;;;;16.35;14.85;;;;;;;16.51;82.26;95649.31;3573686;39;20118;-56
2021/06/21 01:39:44;;;;;;;15.45;13.98;;;;;;;16.43;82.49;95640.97;3592493;40;20041;-56
2021/06/21 01:42:15;;;;;;;15.40;13.80;;;;;;;16.42;82.94;95642.06;3575719;40;20060;-56
2021/06/21 01:44:47;;;;;;;22.13;14.90;;;;;;;16.39;83.15;95642.66;3580824;39;20048;-56
2021/06/21 01:47:16;;;;;;;16.40;14.85;;;;;;;16.39;82.87;95639.97;3579240;40;20052;-56
2021/06/21 01:49:45;;;;;;;17.40;15.57;;;;;;;16.38;83.11;95642.97;3578613;40;20059;-56
2021/06/21 01:52:15;;;;;;;16.00;14.60;;;;;;;16.38;82.63;95640.28;3591992;39;20063;-56
2021/06/21 01:54:53;;;;;;;15.85;14.25;;;;;;;16.31;83.05;95642.59;3591681;39;20062;-56
2021/06/21 01:57:25;;;;;;;15.70;14.35;;;;;;;16.27;82.67;95640.50;3590094;39;20029;-56
2021/06/21 01:59:54;;;;;;;16.48;14.98;;;;;;;16.23;83.38;95636.09;3581079;40;20062;-56
2021/06/21 02:02:25;;;;;;;16.65;15.13;;;;;;;16.22;83.32;95621.22;3589645;39;20040;-56
2021/06/21 02:04:57;;;;;;;17.42;15.60;;;;;;;16.19;83.25;95621.81;3588554;39;20098;-56
2021/06/21 02:07:25;;;;;;;17.25;15.60;;;;;;;16.19;83.28;95613.81;3590464;39;20059;-56
2021/06/21 02:09:55;;;;;;;17.92;16.02;;;;;;;16.17;82.69;95616.78;3591591;40;20070;-55
2021/06/21 02:12:25;;;;;;;17.15;15.40;;;;;;;16.14;82.57;95609.41;3588654;39;20316;-56
2021/06/21 02:14:55;;;;;;;17.10;15.38;;;;;;;16.10;83.17;95608.41;3575150;40;20048;-55
2021/06/21 02:17:26;;;;;;;17.58;15.85;;;;;;;16.05;83.65;95600.56;3588597;39;20056;-55
2021/06/21 02:19:54;;;;;;;17.48;15.77;;;;;;;15.92;83.23;95591.50;3589283;39;20058;-56
2021/06/21 02:22:24;;;;;;;16.95;15.18;;;;;;;15.93;83.27;95599.19;3591993;39;20051;-55
2021/06/21 02:24:54;;;;;;;16.85;15.30;;;;;;;15.93;83.45;95591.22;3590372;39;20492;-56
2021/06/21 02:27:23;;;;;;;17.58;15.88;;;;;;;15.86;83.38;95580.16;3573375;40;20040;-56
2021/06/21 02:29:52;;;;;;;18.65;16.75;;;;;;;15.89;83.17;95589.41;3593089;40;20647;-56
2021/06/21 02:32:20;;;;;;;18.63;16.85;;;;;;;15.79;83.97;95596.50;3583239;40;20040;-56
2021/06/21 02:34:48;;;;;;;18.33;16.52;;;;;;;15.73;84.39;95599.53;3590077;39;20062;-56
2021/06/21 02:37:16;;;;;;;18.65;16.75;;;;;;;15.67;84.14;95589.03;3591099;40;20440;-56
2021/06/21 02:39:44;;;;;;;19.35;17.33;;;;;;;15.60;84.87;95596.59;3582807;39;20056;-56
2021/06/21 02:42:12;;;;;;;18.05;16.45;;;;;;;15.58;84.96;95592.66;3583201;40;20328;-56
2021/06/21 02:44:40;;;;;;;19.15;16.50;;;;;;;15.60;84.50;95604.56;3577304;40;20157;-58
2021/06/21 02:47:09;;;;;;;17.33;15.80;;;;;;;15.58;84.54;95596.09;3581186;39;20044;-56
2021/06/21 02:49:37;;;;;;;18.08;16.38;;;;;;;15.55;84.79;95602.03;3591929;39;20055;-56
2021/06/21 02:52:14;;;;;;;18.70;16.85;;;;;;;15.49;85.01;95588.03;3592980;39;20174;-56
2021/06/21 02:54:51;;;;;;;18.60;16.73;;;;;;;15.45;86.24;95596.88;3592049;39;20446;-56
2021/06/21 02:57:39;;;;;;;17.27;15.73;;;;;;;15.51;85.30;95598.38;3591290;39;20419;-56
2021/06/21 03:00:07;;;;;;;20.58;16.73;;;;;;;15.56;85.23;95598.28;3594148;40;20052;-56
2021/06/21 03:02:37;;;;;;;16.77;15.18;;;;;;;15.53;84.78;95590.91;3592483;40;20058;-56
2021/06/21 03:05:06;;;;;;;15.55;14.13;;;;;;;15.62;84.82;95607.72;3592300;39;20050;-56
2021/06/21 03:07:36;;;;;;;17.92;16.08;;;;;;;15.60;85.00;95612.56;3579509;39;20066;-56
2021/06/21 03:10:05;;;;;;;18.27;16.48;;;;;;;15.64;85.16;95613.53;3584266;39;20523;-55
2021/06/21 03:12:33;;;;;;;17.10;15.60;;;;;;;15.67;85.14;95615.63;3593999;39;20058;-56
2021/06/21 03:15:02;;;;;;;18.45;15.30;;;;;;;15.73;85.27;95618.16;3582462;40;20052;-56
2021/06/21 03:17:34;;;;;;;19.60;17.52;;;;;;;15.80;85.19;95631.88;3576173;40;20044;-56
2021/06/21 03:20:03;;;;;;;19.05;16.60;;;;;;;15.86;84.76;95637.91;3583673;39;20047;-56
2021/06/21 03:22:31;;;;;;;17.15;15.35;;;;;;;15.92;84.11;95637.50;3585613;39;20044;-56
2021/06/21 03:24:59;;;;;;;19.00;15.63;;;;;;;15.94;83.26;95632.66;3581082;40;20055;-55
2021/06/21 03:27:29;;;;;;;22.50;17.13;;;;;;;15.91;83.45;95635.94;3589456;39;20385;-56
2021/06/21 03:29:58;;;;;;;19.58;16.98;;;;;;;15.98;83.05;95633.66;3591052;39;20431;-56
2021/06/21 03:32:29;;;;;;;23.55;15.77;;;;;;;16.72;80.84;95647.78;3590735;39;20770;-56
2021/06/21 03:35:00;;;;;;;22.30;14.60;;;;;;;17.74;77.64;95642.91;3575556;40;20044;-56
2021/06/21 03:37:29;;;;;;;24.33;14.70;;;;;;;18.58;73.94;95634.94;3564777;39;20403;-56
2021/06/21 03:39:57;;;;;;;17.83;14.95;;;;;;;19.25;73.22;95642.78;3581061;39;20040;-56
2021/06/21 03:42:25;;;;;;;16.83;13.85;;;;;;;19.97;70.75;95644.88;3590709;39;20089;-56
2021/06/21 03:44:53;;;;;;;20.13;12.13;;;;;;;20.58;67.17;95641.84;3584403;40;20056;-56
2021/06/21 03:47:21;;;;;;;22.10;13.63;;;;;;;21.11;66.47;95644.09;3591434;39;20052;-57
2021/06/21 03:49:49;;;;;;;24.23;13.65;;;;;;;21.82;64.58;95638.78;3581023;40;20054;-56
2021/06/21 03:52:17;;;;;;;24.38;12.68;;;;;;;22.07;62.41;95638.78;3581716;39;20044;-56
2021/06/21 03:54:45;;;;;;;19.33;12.40;;;;;;;22.44;61.19;95633.38;3581939;39;21014;-57
2021/06/21 03:57:13;;;;;;;16.02;11.57;;;;;;;22.76;59.11;95627.34;3580847;39;20052;-57
2021/06/21 03:59:41;;;;;;;14.45;12.98;;;;;;;23.21;58.71;95625.50;3590474;39;20062;-57
2021/06/21 04:02:08;;;;;;;18.63;12.07;;;;;;;23.40;56.92;95622.16;3590283;39;20563;-57
2021/06/21 04:04:36;;;;;;;20.20;12.77;;;;;;;23.64;57.34;95627.38;3582398;39;20040;-54
2021/06/21 04:07:05;;;;;;;15.45;11.82;;;;;;;24.16;55.79;95629.34;3582546;40;20062;-57
2021/06/21 04:09:32;;;;;;;17.30;12.18;;;;;;;24.55;53.55;95622.09;3583901;40;20056;-56
2021/06/21 04:12:00;;;;;;;12.75;11.30;;;;;;;24.65;52.86;95620.75;3590765;39;20041;-54
2021/06/21 04:14:28;;;;;;;16.30;12.43;;;;;;;25.07;52.35;95616.56;3592517;39;20060;-54
2021/06/21 04:16:55;;;;;;;18.17;12.27;;;;;;;25.46;51.69;95623.88;3581852;40;20596;-55
2021/06/21 04:19:23;;;;;;;17.65;10.75;;;;;;;25.70;50.50;95630.81;3581069;39;20044;-55
2021/06/21 04:21:50;;;;;;;12.80;10.77;;;;;;;25.85;50.87;95626.41;3582508;40;20056;-55
2021/06/21 04:24:18;;;;;;;12.82;11.68;;;;;;;26.08;48.74;95631.00;3569575;40;20054;-55
2021/06/21 04:26:46;;;;;;;12.52;11.38;;;;;;;26.16;48.39;95634.59;3574322;40;20052;-55
2021/06/21 04:29:14;;;;;;;17.00;10.40;;;;;;;26.21;48.99;95627.00;3590247;39;20413;-55
2021/06/21 04:31:48;;;;;;;12.07;10.10;;;;;;;26.51;48.96;95626.22;3580681;40;20069;-57
2021/06/21 04:34:16;;;;;;;15.50;10.93;;;;;;;26.69;47.44;95620.25;3584914;39;20282;-54
2021/06/21 04:36:44;;;;;;;14.60;10.70;;;;;;;26.58;46.59;95632.88;3595512;39;20056;-55
2021/06/21 04:39:12;;;;;;;19.48;11.15;;;;;;;26.92;47.54;95630.97;3581607;39;20463;-55
2021/06/21 04:41:40;;;;;;;18.08;11.77;;;;;;;27.06;47.12;95626.88;3579226;39;20055;-55
2021/06/21 04:44:07;;;;;;;13.38;10.95;;;;;;;26.95;46.29;95624.84;3573948;40;20406;-55
2021/06/21 04:46:35;;;;;;;12.48;10.25;;;;;;;27.00;46.74;95627.22;3581363;39;20697;-54
2021/06/21 04:49:05;;;;;;;11.23;10.20;;;;;;;27.00;45.51;95627.22;3580295;39;20052;-55
2021/06/21 04:51:35;;;;;;;14.52;10.98;;;;;;;26.64;47.31;95626.00;3577440;40;20324;-57
2021/06/21 04:54:02;;;;;;;14.70;11.02;;;;;;;26.48;47.37;95628.88;3591761;39;20058;-55
2021/06/21 04:56:30;;;;;;;22.45;12.43;;;;;;;26.37;47.58;95629.53;3582106;40;20055;-56
2021/06/21 04:58:58;;;;;;;32.13;12.30;;;;;;;26.44;47.84;95638.88;3571871;40;20037;-55
2021/06/21 05:01:25;;;;;;;17.80;11.57;;;;;;;26.69;47.63;95634.56;3591470;39;20528;-55
2021/06/21 05:03:53;;;;;;;17.38;10.95;;;;;;;26.81;46.76;95640.91;3577135;40;20054;-55
2021/06/21 05:06:21;;;;;;;17.30;10.93;;;;;;;26.71;47.55;95637.69;3578595;40;20397;-56
2021/06/21 05:08:49;;;;;;;24.17;13.05;;;;;;;27.07;46.63;95639.25;3591257;39;20044;-55
2021/06/21 05:11:16;;;;;;;18.92;11.35;;;;;;;27.18;45.29;95621.22;3591936;39;20073;-55
2021/06/21 05:13:44;;;;;;;22.00;11.20;;;;;;;27.30;45.85;95626.34;3596658;39;20050;-55
2021/06/21 05:16:13;;;;;;;25.40;12.88;;;;;;;27.01;46.92;95628.00;3578464;39;20617;-55
2021/06/21 05:18:41;;;;;;;24.50;12.65;;;;;;;26.47;48.22;95628.09;3586482;39;20405;-56
2021/06/21 05:21:09;;;;;;;22.75;12.18;;;;;;;25.93;49.58;95633.50;3588764;39;20150;-55
2021/06/21 05:23:37;;;;;;;29.30;12.88;;;;;;;25.31;50.80;95636.28;3580722;39;20055;-56
2021/06/21 05:26:05;;;;;;;16.95;12.38;;;;;;;24.91;51.62;95640.19;3577948;39;20048;-55
2021/06/21 05:28:33;;;;;;;25.23;14.55;;;;;;;24.35;53.10;95642.09;3574395;40;20040;-55
2021/06/21 05:31:01;;;;;;;25.52;12.55;;;;;;;23.94;54.55;95640.38;3587326;39;20082;-55
2021/06/21 05:33:29;;;;;;;29.38;13.38;;;;;;;23.58;55.37;95630.66;3588609;39;20051;-55
2021/06/21 05:35:56;;;;;;;29.38;14.10;;;;;;;23.42;55.99;95636.81;3588850;39;20052;-55
2021/06/21 05:38:24;;;;;;;19.05;11.77;;;;;;;23.31;56.79;95638.47;3590528;39;20044;-55
2021/06/21 05:40:52;;;;;;;28.15;11.73;;;;;;;23.30;57.63;95639.59;3573185;40;20331;-55
2021/06/21 05:43:19;;;;;;;22.95;13.45;;;;;;;23.28;57.23;95629.16;3589008;39;20056;-55
2021/06/21 05:45:47;;;;;;;30.20;13.48;;;;;;;23.30;57.51;95626.13;3583867;39;20504;-55
2021/06/21 05:48:16;;;;;;;26.80;14.48;;;;;;;23.09;57.62;95623.63;3582438;39;20048;-55
2021/06/21 05:50:44;;;;;;;35.05;15.75;;;;;;;22.76;58.30;95608.53;3590077;39;20934;-55
2021/06/21 05:53:11;;;;;;;24.27;13.00;;;;;;;22.56;59.40;95621.81;3592512;39;20359;-55
2021/06/21 05:55:39;;;;;;;28.85;12.45;;;;;;;22.58;58.89;95616.91;3582241;40;20048;-55
2021/06/21 05:58:06;;;;;;;24.67;13.57;;;;;;;22.50;60.07;95621.28;3589263;39;20083;-55
2021/06/21 06:00:34;;;;;;;39.33;16.38;;;;;;;22.62;59.65;95619.69;3579670;39;20176;-55
2021/06/21 06:03:02;;;;;;;21.83;12.65;;;;;;;22.71;60.28;95612.25;3575895;40;20052;-55
2021/06/21 06:05:30;;;;;;;21.55;12.90;;;;;;;22.82;60.12;95616.00;3580007;39;20066;-55
2021/06/21 06:07:57;;;;;;;20.60;12.88;;;;;;;22.86;58.77;95613.41;3598125;39;20048;-54
2021/06/21 06:10:25;;;;;;;20.92;13.40;;;;;;;22.96;58.90;95615.59;3590952;39;20051;-54
2021/06/21 06:12:53;;;;;;;13.60;12.07;;;;;;;22.88;58.74;95603.09;3592417;39;20044;-54
2021/06/21 06:15:20;;;;;;;18.60;12.20;;;;;;;23.00;58.54;95603.03;3580967;39;20052;-55
2021/06/21 06:17:49;;;;;;;14.80;12.05;;;;;;;23.20;58.23;95600.50;3592538;39;20047;-55
2021/06/21 06:20:17;;;;;;;13.07;11.70;;;;;;;23.38;57.94;95600.19;3574000;40;20048;-54
2021/06/21 06:22:45;;;;;;;13.20;10.40;;;;;;;23.47;57.15;95606.97;3593308;39;20075;-54
2021/06/21 06:25:14;;;;;;;21.30;11.27;;;;;;;23.57;57.21;95605.66;3592985;39;20040;-54
2021/06/21 06:27:42;;;;;;;15.07;12.05;;;;;;;23.54;56.37;95610.94;3584712;39;20409;-55
2021/06/21 06:30:11;;;;;;;18.10;12.13;;;;;;;23.61;56.83;95608.44;3593964;39;20327;-55
2021/06/21 06:32:40;;;;;;;13.93;12.05;;;;;;;23.70;56.63;95608.25;3583103;39;20052;-55
2021/06/21 06:35:08;;;;;;;18.85;11.98;;;;;;;23.71;56.66;95609.81;3584925;39;20050;-55
2021/06/21 06:37:36;;;;;;;15.40;10.98;;;;;;;23.78;55.83;95608.06;3592790;39;20166;-56
2021/06/21 06:40:05;;;;;;;17.80;10.80;;;;;;;23.86;56.34;95611.72;3574338;39;20058;-55
2021/06/21 06:42:32;;;;;;;16.75;11.27;;;;;;;23.98;55.79;95608.19;3576602;39;20477;-54
2021/06/21 06:45:00;;;;;;;10.88;9.77;;;;;;;24.12;55.53;95605.03;3591852;39;20059;-54
2021/06/21 06:47:29;;;;;;;14.90;10.77;;;;;;;24.20;54.90;95598.66;3591439;39;20047;-54
2021/06/21 06:49:58;;;;;;;11.00;9.63;;;;;;;24.29;54.95;95592.28;3592327;39;20771;-54
2021/06/21 06:52:25;;;;;;;13.07;10.80;;;;;;;24.40;55.03;95596.00;3589691;39;20326;-54
2021/06/21 06:57:38;;;;;;;21.00;12.30;;;;;;;24.55;53.71;95591.66;3581984;40;20035;-54
2021/06/21 07:00:13;;;;;;;15.30;10.25;;;;;;;24.50;53.99;95592.72;3582578;39;20048;-54
2021/06/21 07:02:45;;;;;;;13.77;9.80;;;;;;;24.50;54.14;95581.94;3592197;39;20055;-54
2021/06/21 07:05:13;;;;;;;20.60;11.15;;;;;;;24.53;54.28;95583.94;3585573;39;20033;-55
2021/06/21 07:07:41;;;;;;;18.92;11.27;;;;;;;24.58;54.82;95585.56;3578564;39;20056;-55
2021/06/21 07:10:09;;;;;;;15.80;11.35;;;;;;;24.78;54.70;95582.88;3593072;39;20340;-55
2021/06/21 07:12:37;;;;;;;10.88;9.85;;;;;;;24.85;54.02;95586.50;3592794;39;20431;-55
2021/06/21 07:15:05;;;;;;;19.05;12.13;;;;;;;25.01;53.05;95586.41;3590558;39;20122;-54
2021/06/21 07:17:33;;;;;;;12.38;10.30;;;;;;;24.84;54.27;95578.78;3591643;39;20054;-55
2021/06/21 07:20:00;;;;;;;15.02;10.98;;;;;;;24.86;53.70;95579.97;3582033;39;20051;-54
2021/06/21 07:22:28;;;;;;;17.00;11.88;;;;;;;24.91;53.85;95584.28;3591056;39;20058;-54
2021/06/21 07:24:56;;;;;;;12.55;10.68;;;;;;;25.01;53.84;95581.00;3580701;39;20045;-54
2021/06/21 07:27:25;;;;;;;13.02;11.00;;;;;;;25.12;53.76;95580.41;3592405;39;20056;-54
2021/06/21 07:29:53;;;;;;;17.75;11.32;;;;;;;25.22;53.65;95566.34;3583511;39;20058;-54
2021/06/21 07:32:25;;;;;;;14.07;11.38;;;;;;;25.32;52.87;95571.16;3581095;39;20054;-54
2021/06/21 07:34:53;;;;;;;14.13;11.05;;;;;;;25.42;53.26;95571.72;3591931;39;20463;-55
2021/06/21 07:37:20;;;;;;;16.50;10.80;;;;;;;25.41;52.79;95562.84;3591245;39;20048;-53
2021/06/21 07:39:48;;;;;;;15.95;11.32;;;;;;;25.38;52.48;95571.63;3579534;40;20044;-54
2021/06/21 07:42:16;;;;;;;11.52;9.95;;;;;;;25.48;52.20;95560.25;3592307;39;20071;-54
2021/06/21 07:44:43;;;;;;;11.70;10.75;;;;;;;25.34;52.17;95562.69;3591344;39;20098;-54
2021/06/21 07:47:11;;;;;;;11.38;10.30;;;;;;;25.07;52.60;95562.59;3580055;39;20117;-55
2021/06/21 07:49:39;;;;;;;11.23;10.20;;;;;;;25.30;53.25;95556.44;3582909;39;20050;-54
2021/06/21 07:52:06;;;;;;;11.88;9.90;;;;;;;25.58;53.22;95558.88;3591900;39;20201;-54
2021/06/21 07:54:34;;;;;;;17.33;11.20;;;;;;;25.84;52.88;95556.53;3581323;39;20055;-55
2021/06/21 07:57:02;;;;;;;11.25;10.18;;;;;;;26.05;51.81;95556.81;3582503;40;20052;-55
2021/06/21 07:59:30;;;;;;;11.50;10.40;;;;;;;26.21;51.11;95550.50;3590885;39;20040;-56
2021/06/21 08:01:57;;;;;;;9.73;8.93;;;;;;;26.18;50.86;95551.22;3589005;39;20081;-56
2021/06/21 08:04:25;;;;;;;10.90;9.90;;;;;;;26.23;50.27;95551.69;3588213;39;20155;-55
2021/06/21 08:06:53;;;;;;;13.35;10.32;;;;;;;26.36;51.11;95546.84;3589017;39;20052;-55
2021/06/21 08:09:20;;;;;;;15.02;10.10;;;;;;;26.47;51.31;95538.06;3583707;40;20048;-55
2021/06/21 08:11:48;;;;;;;11.45;10.15;;;;;;;26.44;50.38;95531.47;3582362;40;20052;-56
2021/06/21 08:14:17;;;;;;;12.60;11.25;;;;;;;26.61;50.60;95535.53;3590637;39;20060;-55
2021/06/21 08:16:44;;;;;;;11.70;10.50;;;;;;;26.80;50.00;95526.50;3592323;40;20048;-55
2021/06/21 08:19:12;;;;;;;14.18;11.43;;;;;;;26.97;49.90;95527.81;3580798;40;20047;-54
2021/06/21 08:21:39;;;;;;;12.40;10.43;;;;;;;27.16;49.08;95520.63;3591002;39;20044;-56
2021/06/21 08:24:10;;;;;;;12.77;9.90;;;;;;;27.32;49.83;95521.16;3591910;39;20298;-55
2021/06/21 08:26:38;;;;;;;12.00;10.50;;;;;;;27.56;49.12;95520.97;3591613;39;20081;-55
2021/06/21 08:29:06;;;;;;;14.75;10.27;;;;;;;27.82;48.27;95522.69;3592189;39;20044;-57
2021/06/21 08:31:34;;;;;;;11.82;10.63;;;;;;;27.97;48.07;95517.34;3582268;40;20040;-55
2021/06/21 08:34:02;;;;;;;12.13;9.55;;;;;;;28.06;46.86;95515.06;3581842;39;20214;-55
2021/06/21 08:36:29;;;;;;;11.75;9.60;;;;;;;28.10;46.85;95510.50;3581832;39;20044;-55
2021/06/21 08:38:57;;;;;;;11.43;9.73;;;;;;;28.16;46.54;95508.19;3591733;39;20052;-56
2021/06/21 08:41:25;;;;;;;10.35;9.43;;;;;;;28.36;46.63;95512.13;3583021;40;20040;-57
2021/06/21 08:43:52;;;;;;;11.65;9.13;;;;;;;28.49;46.51;95515.28;3591133;39;20048;-55
2021/06/21 08:46:20;;;;;;;13.10;11.25;;;;;;;28.70;46.11;95511.09;3582065;40;20060;-57
2021/06/21 08:48:48;;;;;;;10.45;9.43;;;;;;;28.90;45.92;95503.41;3563157;39;20060;-57
2021/06/21 08:51:16;;;;;;;11.15;9.48;;;;;;;29.05;44.54;95509.63;3581110;39;20047;-57
2021/06/21 08:53:44;;;;;;;9.27;8.43;;;;;;;29.28;43.73;95511.19;3586777;39;20062;-56
2021/06/21 08:56:12;;;;;;;8.98;8.18;;;;;;;29.25;43.49;95512.75;3571999;39;20051;-56
2021/06/21 08:58:40;;;;;;;10.15;9.30;;;;;;;29.27;43.73;95510.41;3591270;39;20040;-57
2021/06/21 09:01:08;;;;;;;13.20;9.88;;;;;;;29.48;43.66;95505.38;3581512;39;20550;-63
2021/06/21 09:03:36;;;;;;;9.82;8.90;;;;;;;29.68;43.08;95503.81;3581201;40;20046;-64
2021/06/21 09:06:18;;;;;;;9.95;9.13;;;;;;;29.85;44.23;95501.41;3573092;39;20556;-63
2021/06/21 09:08:56;;;;;;;13.52;10.70;;;;;;;30.15;41.77;95508.38;3592002;39;20370;-64
2021/06/21 09:11:46;;;;;;;9.48;8.63;;;;;;;30.28;39.94;95500.56;3569712;39;20055;-63
2021/06/21 09:14:26;;;;;;;9.63;8.82;;;;;;;30.47;40.43;95500.06;3575283;39;20078;-63
2021/06/21 09:17:01;;;;;;;12.50;9.27;;;;;;;30.62;41.02;95497.31;3589107;39;20045;-63
2021/06/21 09:19:31;;;;;;;14.75;9.52;;;;;;;30.83;39.75;95490.97;3581316;39;20044;-63
2021/06/21 09:21:59;;;;;;;10.20;9.20;;;;;;;30.80;39.71;95492.53;3589470;39;20243;-64
2021/06/21 09:24:29;;;;;;;8.63;7.93;;;;;;;30.98;38.85;95491.66;3589963;39;20048;-64
2021/06/21 09:26:59;;;;;;;12.18;8.70;;;;;;;31.07;39.06;95485.75;3588363;39;20058;-63
2021/06/21 09:29:41;;;;;;;9.65;8.70;;;;;;;31.19;39.05;95485.28;3571794;40;20052;-63
2021/06/21 09:32:47;;;;;;;11.15;9.90;;;;;;;31.20;39.12;95480.59;3581338;40;20055;-63
2021/06/21 09:35:30;;;;;;;9.60;8.80;;;;;;;31.13;40.02;95490.41;3589455;39;20052;-63
2021/06/21 09:38:04;;;;;;;10.25;9.10;;;;;;;30.87;40.06;95488.22;3587906;39;20070;-63
2021/06/21 09:40:32;;;;;;;11.77;9.33;;;;;;;30.61;40.63;95491.09;3575562;40;20670;-63
2021/06/21 09:43:20;;;;;;;9.38;8.63;;;;;;;30.46;39.96;95493.09;3589966;39;20046;-63
2021/06/21 09:46:11;;;;;;;10.20;8.95;;;;;;;30.38;41.89;95486.13;3589267;39;20052;-63
2021/06/21 09:48:46;;;;;;;9.25;8.45;;;;;;;30.30;41.42;95482.66;3565182;40;20052;-63
2021/06/21 09:51:31;;;;;;;9.07;8.23;;;;;;;30.01;41.53;95488.22;3581762;39;20059;-62
2021/06/21 09:54:08;;;;;;;;;;;;;;;29.73;41.71;95483.59;3590785;39;20825;-63
2021/06/21 09:56:46;;;;;;;9.55;8.60;;;;;;;29.60;43.01;95486.72;3582376;40;19950;-62
2021/06/21 09:59:25;;;;;;;9.57;8.85;;;;;;;29.51;43.25;95491.00;3574819;39;20050;-64
2021/06/21 10:02:16;;;;;;;12.57;8.95;;;;;;;29.41;43.46;95485.19;3588800;39;20086;-63
2021/06/21 10:04:45;;;;;;;8.95;8.20;;;;;;;29.35;42.88;95475.91;3589643;39;20461;-61
2021/06/21 10:07:35;;;;;;;11.77;9.52;;;;;;;29.41;43.15;95479.00;3571200;39;20048;-64
2021/06/21 10:10:09;;;;;;;10.27;9.20;;;;;;;29.53;43.46;95475.09;3590070;39;20063;-62
2021/06/21 10:12:40;;;;;;;8.85;8.10;;;;;;;29.74;43.02;95466.88;3591096;39;20048;-63
2021/06/21 10:15:10;;;;;;;7.85;7.25;;;;;;;29.91;42.54;95470.72;3594360;39;20044;-64
2021/06/21 10:17:39;;;;;;;10.00;8.90;;;;;;;30.13;41.96;95472.63;3588819;39;20371;-63
2021/06/21 10:20:08;;;;;;;7.68;6.95;;;;;;;30.26;39.58;95454.69;3588629;39;20451;-63
2021/06/21 10:22:39;;;;;;;11.63;7.50;;;;;;;30.42;38.87;95456.19;3591044;39;20580;-63
2021/06/21 10:25:09;;;;;;;7.97;7.28;;;;;;;30.37;37.74;95460.84;3574196;39;20056;-63
2021/06/21 10:27:45;;;;;;;8.55;7.85;;;;;;;30.47;37.85;95451.09;3578116;39;20066;-63
2021/06/21 10:30:17;;;;;;;7.88;7.28;;;;;;;30.62;38.14;95459.22;3589993;39;20679;-65
2021/06/21 10:32:52;;;;;;;9.02;7.25;;;;;;;30.84;37.42;95443.47;3586117;39;20054;-62
2021/06/21 10:35:24;;;;;;;7.25;6.75;;;;;;;30.98;37.10;95445.34;3579072;40;20050;-63
2021/06/21 10:37:59;;;;;;;11.02;9.95;;;;;;;31.01;36.65;95452.72;3592364;39;20405;-63
2021/06/21 10:40:29;;;;;;;7.72;6.95;;;;;;;31.03;36.24;95446.88;3582317;40;20070;-64
2021/06/21 10:42:57;;;;;;;7.13;6.43;;;;;;;31.11;36.15;95434.72;3591597;39;20138;-64
2021/06/21 10:45:28;;;;;;;7.20;6.22;;;;;;;31.16;34.77;95428.88;3581453;40;20048;-64
2021/06/21 10:48:15;;;;;;;7.18;6.30;;;;;;;31.21;34.03;95433.88;3590896;39;20052;-63
2021/06/21 10:51:01;;;;;;;6.47;5.88;;;;;;;31.26;35.34;95432.69;3562529;39;20111;-64
2021/06/21 10:53:53;;;;;;;7.85;7.03;;;;;;;31.36;35.05;95431.81;3593114;39;20050;-62
2021/06/21 10:56:44;;;;;;;7.90;7.30;;;;;;;31.26;34.44;95427.25;3584151;39;20051;-62
2021/06/21 10:59:14;;;;;;;8.02;7.22;;;;;;;31.12;35.48;95419.97;3578900;39;20050;-64
2021/06/21 11:01:53;;;;;;;7.10;6.40;;;;;;;31.20;35.54;95426.13;3589645;39;20052;-63
2021/06/21 11:04:35;;;;;;;6.88;6.05;;;;;;;31.29;35.36;95429.94;3591157;39;20114;-62
2021/06/21 11:07:19;;;;;;;6.68;6.18;;;;;;;31.35;33.94;95421.31;3564469;40;20048;-62
2021/06/21 11:09:53;;;;;;;7.65;6.93;;;;;;;31.39;33.77;95411.91;3593942;40;20052;-63
2021/06/21 11:12:20;;;;;;;6.78;6.18;;;;;;;31.43;32.63;95409.16;3593825;40;20060;-64
2021/06/21 11:15:07;;;;;;;6.15;5.75;;;;;;;31.46;33.89;95408.34;3584380;40;20059;-63
2021/06/21 11:17:50;;;;;;;6.47;5.93;;;;;;;31.47;33.28;95401.72;3594087;40;20288;-63
2021/06/21 11:20:34;;;;;;;9.90;8.77;;;;;;;31.43;34.64;95401.75;3593942;40;20052;-63
2021/06/21 11:23:05;;;;;;;6.32;5.68;;;;;;;31.45;31.44;95395.88;3572814;40;20044;-63
2021/06/21 11:25:41;;;;;;;6.82;6.10;;;;;;;31.52;32.63;95395.03;3593865;40;20673;-62
2021/06/21 11:28:36;;;;;;;6.68;6.07;;;;;;;31.60;33.16;95393.81;3591420;40;20062;-64
2021/06/21 11:31:25;;;;;;;7.80;7.20;;;;;;;31.66;34.61;95391.41;3583479;40;20062;-63
2021/06/21 11:33:55;;;;;;;8.45;7.85;;;;;;;31.64;35.38;95382.84;3579416;39;20062;-62
2021/06/21 11:36:43;;;;;;;7.85;7.25;;;;;;;31.71;35.72;95385.50;3586543;39;20336;-64
2021/06/21 11:39:30;;;;;;;7.45;6.85;;;;;;;31.69;35.47;95385.16;3587621;39;20040;-63
2021/06/21 11:42:05;;;;;;;7.90;7.15;;;;;;;31.32;36.05;95386.72;3592515;39;20052;-64